createdAt,value
2022-11-20T00:02:17.406Z,4.18
2022-11-20T00:04:46.903Z,5.82
2022-11-20T00:07:16.471Z,5.18
2022-11-20T00:09:45.890Z,5.88
2022-11-20T00:12:15.306Z,4.68
2022-11-20T00:14:44.758Z,3.75
2022-11-20T00:17:14.132Z,2.92
2022-11-20T00:19:44.971Z,5.15
2022-11-20T00:22:14.359Z,4.30
2022-11-20T00:24:43.725Z,6.28
2022-11-20T00:27:13.109Z,3.42
2022-11-20T00:29:42.506Z,4.20
2022-11-20T00:32:11.832Z,3.50
2022-11-20T00:34:41.338Z,3.65
2022-11-20T00:37:12.219Z,4.55
2022-11-20T00:39:42.030Z,4.32
2022-11-20T00:42:11.418Z,4.45
2022-11-20T00:44:40.803Z,5.18
2022-11-20T00:47:10.159Z,5.25
2022-11-20T00:51:08.730Z,4.60
2022-11-20T00:53:38.318Z,4.67
2022-11-20T00:56:10.458Z,5.50
2022-11-20T00:58:42.712Z,4.18
2022-11-20T01:01:16.485Z,4.63
2022-11-20T01:03:48.883Z,4.20
2022-11-20T01:06:23.674Z,4.03
2022-11-20T01:08:55.477Z,5.35
2022-11-20T01:11:27.178Z,6.33
2022-11-20T01:13:58.217Z,5.37
2022-11-20T01:16:30.829Z,3.70
2022-11-20T01:19:03.060Z,4.68
2022-11-20T01:21:36.830Z,4.25
2022-11-20T01:24:08.942Z,5.55
2022-11-20T01:26:42.276Z,4.70
2022-11-20T01:29:17.011Z,5.00
2022-11-20T01:31:47.186Z,5.15
2022-11-20T01:34:19.798Z,4.55
2022-11-20T01:39:24.238Z,7.55
2022-11-20T01:42:13.664Z,5.45
2022-11-20T01:44:58.733Z,3.78
2022-11-20T01:47:34.536Z,4.22
2022-11-20T01:50:11.977Z,3.38
2022-11-20T01:52:47.572Z,2.92
2022-11-20T01:55:22.137Z,3.67
2022-11-20T01:57:52.465Z,3.88
2022-11-20T02:00:23.484Z,3.58
2022-11-20T02:02:59.858Z,3.60
2022-11-20T02:05:38.228Z,3.50
2022-11-20T02:08:10.477Z,3.47
2022-11-20T02:10:40.022Z,3.05
2022-11-20T02:13:27.546Z,2.42
2022-11-20T02:15:57.610Z,3.20
2022-11-20T02:18:27.637Z,2.25
2022-11-20T02:21:03.731Z,3.63
2022-11-20T02:23:41.212Z,2.67
2022-11-20T02:26:16.550Z,3.13
2022-11-20T02:28:45.950Z,14.15
2022-11-20T02:31:15.346Z,14.23
2022-11-20T02:33:44.790Z,2.85
2022-11-20T02:36:17.906Z,6.03
2022-11-20T02:38:47.603Z,6.32
2022-11-20T02:41:18.489Z,7.30
2022-11-20T02:43:47.877Z,4.55
2022-11-20T02:46:17.372Z,4.30
2022-11-20T02:48:46.798Z,5.88
2022-11-20T02:51:16.320Z,4.22
2022-11-20T02:53:45.818Z,3.63
2022-11-20T02:56:16.759Z,2.90
2022-11-20T02:58:46.139Z,3.40
2022-11-20T03:01:16.012Z,2.20
2022-11-20T03:03:45.490Z,3.15
2022-11-20T03:06:15.004Z,3.45
2022-11-20T03:08:44.509Z,2.38
2022-11-20T03:11:14.401Z,2.03
2022-11-20T03:13:45.231Z,1.75
2022-11-20T03:16:17.523Z,2.20
2022-11-20T03:18:47.552Z,2.33
2022-11-20T03:21:17.716Z,4.15
2022-11-20T03:23:47.277Z,4.60
2022-11-20T03:26:20.052Z,4.60
2022-11-20T03:28:53.333Z,4.43
2022-11-20T03:31:26.071Z,4.30
2022-11-20T03:33:55.858Z,3.60
2022-11-20T03:36:27.016Z,3.65
2022-11-20T03:38:57.387Z,3.22
2022-11-20T03:41:29.585Z,3.90
2022-11-20T03:44:03.389Z,4.22
2022-11-20T03:46:33.309Z,2.63
2022-11-20T03:52:07.846Z,2.17
2022-11-20T03:54:37.234Z,3.55
2022-11-20T03:57:06.638Z,4.00
2022-11-20T03:59:36.147Z,2.95
2022-11-20T04:02:05.550Z,5.13
2022-11-20T04:04:35.052Z,5.55
2022-11-20T04:07:04.610Z,5.05
2022-11-20T04:09:35.710Z,3.67
2022-11-20T04:12:05.192Z,3.47
2022-11-20T04:14:34.618Z,3.50
2022-11-20T04:17:04.018Z,3.78
2022-11-20T04:19:33.377Z,3.97
2022-11-20T04:22:02.899Z,3.50
2022-11-20T04:24:33.727Z,3.33
2022-11-20T04:27:03.060Z,2.85
2022-11-20T04:29:32.484Z,2.33
2022-11-20T04:32:01.989Z,3.85
2022-11-20T04:34:31.391Z,6.15
2022-11-20T04:37:00.909Z,6.22
2022-11-20T04:39:30.386Z,4.20
2022-11-20T04:42:15.029Z,3.95
2022-11-20T04:44:44.532Z,4.20
2022-11-20T04:47:14.004Z,3.60
2022-11-20T04:49:43.533Z,3.20
2022-11-20T04:52:12.971Z,3.35
2022-11-20T04:54:42.386Z,3.83
2022-11-20T04:57:14.566Z,3.33
2022-11-20T04:59:44.889Z,3.00
2022-11-20T05:02:14.706Z,2.47
2022-11-20T05:04:44.110Z,2.90
2022-11-20T05:07:13.616Z,2.88
2022-11-20T05:09:43.054Z,2.53
2022-11-20T05:12:13.968Z,2.78
2022-11-20T05:14:43.203Z,2.83
2022-11-20T05:17:14.292Z,3.30
2022-11-20T05:19:43.574Z,2.50
2022-11-20T05:22:13.046Z,3.40
2022-11-20T05:24:42.348Z,2.75
2022-11-20T05:27:13.098Z,2.92
2022-11-20T05:29:42.629Z,5.20
2022-11-20T05:32:12.028Z,8.55
2022-11-20T05:34:41.427Z,5.57
2022-11-20T05:37:10.951Z,5.00
2022-11-20T05:39:40.352Z,6.03
2022-11-20T05:42:27.170Z,3.97
2022-11-20T05:44:58.205Z,3.70
2022-11-20T05:47:27.678Z,5.63
2022-11-20T05:49:57.467Z,7.53
2022-11-20T05:52:26.899Z,3.75
2022-11-20T05:54:56.368Z,3.05
2022-11-20T05:57:26.005Z,4.22
2022-11-20T05:59:56.875Z,1.67
2022-11-20T06:02:26.569Z,1.90
2022-11-20T06:04:56.153Z,1.83
2022-11-20T06:07:25.577Z,3.90
2022-11-20T06:09:55.083Z,7.63
2022-11-20T06:12:24.670Z,6.70
2022-11-20T06:14:56.945Z,2.13
2022-11-20T06:17:26.323Z,2.75
2022-11-20T06:19:55.587Z,2.10
2022-11-20T06:22:25.258Z,2.13
2022-11-20T06:24:54.581Z,2.33
2022-11-20T06:27:24.103Z,2.70
2022-11-20T06:29:53.638Z,2.75
2022-11-20T06:32:24.567Z,3.60
2022-11-20T06:34:53.900Z,3.45
2022-11-20T06:37:23.323Z,4.32
2022-11-20T06:39:52.643Z,3.50
2022-11-20T06:42:21.958Z,5.05
2022-11-20T06:44:51.390Z,4.60
2022-11-20T06:47:20.933Z,4.25
2022-11-20T06:52:07.831Z,4.15
2022-11-20T06:54:40.121Z,3.42
2022-11-20T06:57:09.452Z,3.35
2022-11-20T06:59:38.921Z,3.92
2022-11-20T07:02:08.435Z,3.22
2022-11-20T07:04:37.867Z,4.35
2022-11-20T07:07:08.884Z,11.75
2022-11-20T07:09:38.198Z,9.48
2022-11-20T07:12:08.564Z,7.35
2022-11-20T07:14:37.908Z,18.25
2022-11-20T07:17:07.193Z,5.18
2022-11-20T07:19:36.525Z,14.50
2022-11-20T07:22:05.812Z,4.40
2022-11-20T07:24:36.699Z,2.47
2022-11-20T07:27:06.650Z,1.65
2022-11-20T07:29:35.979Z,1.65
2022-11-20T07:32:06.652Z,1.25
2022-11-20T07:34:36.056Z,1.08
2022-11-20T07:37:10.170Z,1.33
2022-11-20T07:39:41.568Z,1.33
2022-11-20T07:42:11.460Z,1.30
2022-11-20T07:44:41.338Z,1.25
2022-11-20T07:47:10.745Z,1.08
2022-11-20T07:49:40.060Z,1.05
2022-11-20T07:52:09.336Z,1.50
2022-11-20T07:54:40.180Z,1.25
2022-11-20T07:57:09.534Z,0.93
2022-11-20T07:59:40.006Z,1.92
2022-11-20T08:02:11.926Z,1.05
2022-11-20T08:04:41.338Z,1.13
2022-11-20T08:07:10.659Z,1.40
2022-11-20T08:09:41.533Z,1.60
2022-11-20T08:12:40.815Z,0.70
2022-11-20T08:15:13.488Z,1.20
2022-11-20T08:17:48.916Z,1.80
2022-11-20T08:20:26.446Z,1.33
2022-11-20T08:22:59.984Z,2.03
2022-11-20T08:25:31.789Z,1.17
2022-11-20T08:28:08.983Z,1.58
2022-11-20T08:30:45.512Z,1.38
2022-11-20T08:33:14.938Z,1.42
2022-11-20T08:35:44.577Z,1.27
2022-11-20T08:38:14.173Z,1.35
2022-11-20T08:41:05.686Z,2.42
2022-11-20T08:43:35.130Z,1.55
2022-11-20T08:46:04.638Z,1.60
2022-11-20T08:48:33.990Z,0.80
2022-11-20T08:51:03.375Z,1.30
2022-11-20T08:53:32.881Z,1.13
2022-11-20T08:56:03.860Z,1.25
2022-11-20T08:58:48.799Z,0.75
2022-11-20T09:01:24.416Z,1.00
2022-11-20T09:03:53.908Z,1.38
2022-11-20T09:06:23.124Z,1.20
2022-11-20T09:08:55.693Z,0.80
2022-11-20T09:13:55.691Z,0.75
2022-11-20T09:16:25.159Z,0.90
2022-11-20T09:19:13.442Z,1.00
2022-11-20T09:21:44.030Z,0.85
2022-11-20T09:24:13.681Z,0.80
2022-11-20T09:26:44.522Z,0.75
2022-11-20T09:29:13.848Z,0.80
2022-11-20T09:31:43.313Z,1.10
2022-11-20T09:34:12.732Z,1.98
2022-11-20T09:36:42.131Z,0.80
2022-11-20T09:39:11.579Z,1.83
2022-11-20T09:42:05.999Z,0.93
2022-11-20T09:44:59.524Z,1.02
2022-11-20T09:47:45.125Z,3.45
2022-11-20T09:52:22.487Z,1.55
2022-11-20T09:54:53.290Z,1.23
2022-11-20T09:57:26.160Z,1.55
2022-11-20T10:00:01.627Z,1.25
2022-11-20T10:02:39.494Z,0.88
2022-11-20T10:05:18.214Z,1.27
2022-11-20T10:08:06.881Z,1.30
2022-11-20T10:10:44.019Z,1.00
2022-11-20T10:13:31.373Z,1.27
2022-11-20T10:16:16.657Z,1.13
2022-11-20T10:19:04.687Z,1.75
2022-11-20T10:21:43.947Z,1.08
2022-11-20T10:24:42.444Z,1.83
2022-11-20T10:27:47.427Z,0.90
2022-11-20T10:30:19.429Z,1.17
2022-11-20T10:32:51.538Z,1.92
2022-11-20T10:35:26.452Z,1.20
2022-11-20T10:38:02.506Z,1.00
2022-11-20T10:40:38.992Z,0.82
2022-11-20T10:43:16.240Z,0.82
2022-11-20T10:45:56.717Z,0.98
2022-11-20T10:48:28.080Z,0.68
2022-11-20T10:51:15.930Z,1.38
2022-11-20T10:53:59.597Z,0.93
2022-11-20T10:56:39.592Z,0.82
2022-11-20T10:59:44.930Z,1.17
2022-11-20T11:02:23.455Z,1.50
2022-11-20T11:04:54.572Z,1.02
2022-11-20T11:07:30.883Z,1.00
2022-11-20T11:10:00.490Z,0.63
2022-11-20T11:12:32.172Z,0.60
2022-11-20T11:15:02.726Z,1.03
2022-11-20T11:17:34.801Z,0.82
2022-11-20T11:20:09.456Z,1.35
2022-11-20T11:22:49.269Z,0.60
2022-11-20T11:25:40.673Z,0.85
2022-11-20T11:28:27.253Z,1.60
2022-11-20T11:30:57.071Z,2.50
2022-11-20T11:33:29.309Z,1.25
2022-11-20T11:36:00.770Z,2.33
2022-11-20T11:38:38.698Z,1.95
2022-11-20T11:41:13.962Z,2.15
2022-11-20T11:44:13.632Z,1.23
2022-11-20T11:46:54.670Z,2.55
2022-11-20T11:49:24.666Z,1.67
2022-11-20T11:52:07.332Z,2.40
2022-11-20T11:54:44.402Z,0.95
2022-11-20T11:57:20.980Z,1.90
2022-11-20T12:00:06.452Z,0.90
2022-11-20T12:02:44.805Z,1.45
2022-11-20T12:05:24.418Z,2.13
2022-11-20T12:07:59.780Z,2.30
2022-11-20T12:10:46.978Z,2.13
2022-11-20T12:13:35.366Z,0.95
2022-11-20T12:16:07.674Z,2.53
2022-11-20T12:21:23.361Z,0.93
2022-11-20T12:24:12.056Z,1.17
2022-11-20T12:27:04.388Z,1.88
2022-11-20T12:29:46.113Z,1.13
2022-11-20T12:32:59.874Z,1.77
2022-11-20T12:35:47.490Z,1.25
2022-11-20T12:39:04.354Z,1.00
2022-11-20T12:42:21.786Z,1.67
2022-11-20T12:45:27.484Z,2.58
2022-11-20T12:52:30.487Z,2.33
2022-11-20T12:55:26.493Z,1.88
2022-11-20T12:58:00.979Z,2.17
2022-11-20T13:00:30.543Z,1.48
2022-11-20T13:03:23.236Z,3.05
2022-11-20T13:06:03.431Z,1.73
2022-11-20T13:08:38.991Z,2.53
2022-11-20T13:11:19.553Z,1.80
2022-11-20T13:14:10.045Z,1.42
2022-11-20T13:16:47.453Z,2.25
2022-11-20T13:19:20.232Z,1.55
2022-11-20T13:21:51.796Z,1.40
2022-11-20T13:24:31.270Z,1.40
2022-11-20T13:27:22.826Z,2.50
2022-11-20T13:30:16.113Z,1.55
2022-11-20T13:32:54.561Z,1.60
2022-11-20T13:35:34.713Z,1.27
2022-11-20T13:38:11.104Z,1.25
2022-11-20T13:40:54.285Z,1.45
2022-11-20T13:43:34.952Z,1.00
2022-11-20T13:46:06.774Z,1.23
2022-11-20T13:48:41.873Z,1.98
2022-11-20T13:51:24.351Z,1.63
2022-11-20T13:54:27.988Z,2.10
2022-11-20T13:57:21.067Z,1.92
2022-11-20T14:00:00.740Z,2.08
2022-11-20T14:02:31.946Z,1.80
2022-11-20T14:05:04.509Z,2.38
2022-11-20T14:07:42.375Z,1.70
2022-11-20T14:10:31.059Z,1.88
2022-11-20T14:13:18.017Z,3.15
2022-11-20T14:15:47.507Z,3.88
2022-11-20T14:18:23.712Z,4.00
2022-11-20T14:20:53.153Z,2.47
2022-11-20T14:23:30.256Z,1.85
2022-11-20T14:26:00.546Z,3.10
2022-11-20T14:28:33.687Z,3.15
2022-11-20T14:31:03.422Z,2.55
2022-11-20T14:33:36.650Z,2.17
2022-11-20T14:36:06.780Z,2.67
2022-11-20T14:38:36.578Z,2.25
2022-11-20T14:41:10.672Z,2.35
2022-11-20T14:43:42.462Z,2.33
2022-11-20T14:46:13.463Z,2.28
2022-11-20T14:48:46.264Z,3.30
2022-11-20T14:51:31.141Z,2.72
2022-11-20T14:54:16.630Z,2.10
2022-11-20T14:56:57.568Z,6.20
2022-11-20T14:59:30.160Z,8.57
2022-11-20T15:02:03.410Z,10.95
2022-11-20T15:04:33.684Z,5.93
2022-11-20T15:07:03.827Z,3.35
2022-11-20T15:09:33.489Z,2.00
2022-11-20T15:12:06.789Z,1.90
2022-11-20T15:14:40.110Z,3.50
2022-11-20T15:17:14.947Z,6.43
2022-11-20T15:19:44.335Z,4.47
2022-11-20T15:22:17.891Z,7.28
2022-11-20T15:24:47.483Z,5.68
2022-11-20T15:27:16.938Z,3.50
2022-11-20T15:29:47.749Z,2.80
2022-11-20T15:32:17.184Z,3.00
2022-11-20T15:34:46.574Z,2.95
2022-11-20T15:37:16.123Z,0.73
2022-11-20T15:39:45.471Z,1.50
2022-11-20T15:42:14.885Z,0.93
2022-11-20T15:44:44.224Z,0.70
2022-11-20T15:47:15.054Z,4.63
2022-11-20T15:52:07.550Z,4.90
2022-11-20T15:54:36.852Z,5.97
2022-11-20T15:57:07.052Z,5.82
2022-11-20T15:59:40.943Z,22.70
2022-11-20T16:02:17.656Z,6.75
2022-11-20T16:04:48.752Z,7.63
2022-11-20T16:07:19.635Z,8.30
2022-11-20T16:09:49.086Z,5.53
2022-11-20T16:12:38.824Z,3.42
2022-11-20T16:15:27.933Z,4.60
2022-11-20T16:17:57.273Z,7.53
2022-11-20T16:20:26.712Z,11.35
2022-11-20T16:22:57.566Z,11.73
2022-11-20T16:25:27.083Z,11.35
2022-11-20T16:27:56.518Z,9.90
2022-11-20T16:30:26.020Z,5.30
2022-11-20T16:32:55.388Z,6.45
2022-11-20T16:35:24.950Z,6.35
2022-11-20T16:37:55.843Z,4.63
2022-11-20T16:40:25.767Z,4.85
2022-11-20T16:42:55.342Z,4.85
2022-11-20T16:45:28.874Z,7.63
2022-11-20T16:48:00.749Z,15.80
2022-11-20T16:50:30.151Z,9.40
2022-11-20T16:53:00.951Z,12.38
2022-11-20T16:55:30.360Z,15.20
2022-11-20T16:57:59.746Z,9.65
2022-11-20T17:00:29.191Z,8.65
2022-11-20T17:02:58.639Z,8.90
2022-11-20T17:05:28.100Z,6.20
2022-11-20T17:07:59.787Z,3.75
2022-11-20T17:10:29.621Z,6.40
2022-11-20T17:12:59.139Z,4.78
2022-11-20T17:15:28.671Z,3.25
2022-11-20T17:17:58.180Z,4.03
2022-11-20T17:20:27.739Z,3.22
2022-11-20T17:22:57.161Z,1.00
2022-11-20T17:25:27.963Z,1.95
2022-11-20T17:27:57.408Z,1.55
2022-11-20T17:30:27.463Z,0.40
2022-11-20T17:32:56.974Z,0.60
2022-11-20T17:35:26.418Z,0.22
2022-11-20T17:37:55.723Z,0.60
2022-11-20T17:40:27.813Z,0.60
2022-11-20T17:42:57.604Z,0.20
2022-11-20T17:45:27.045Z,0.35
2022-11-20T17:47:56.419Z,1.98
2022-11-20T17:50:25.713Z,2.13
2022-11-20T17:52:55.340Z,4.75
2022-11-20T17:55:24.720Z,12.00
2022-11-20T17:57:56.957Z,3.83
2022-11-20T18:00:27.497Z,1.45
2022-11-20T18:02:57.985Z,6.70
2022-11-20T18:05:29.092Z,4.70
2022-11-20T18:07:58.471Z,0.20
2022-11-20T18:10:30.241Z,0.40
2022-11-20T18:13:01.074Z,0.20
2022-11-20T18:15:30.472Z,0.55
2022-11-20T18:17:59.791Z,0.40
2022-11-20T18:20:32.191Z,1.38
2022-11-20T18:23:05.553Z,2.85
2022-11-20T18:25:35.286Z,2.65
2022-11-20T18:28:06.289Z,2.33
2022-11-20T18:30:35.792Z,9.80
2022-11-20T18:33:07.269Z,2.22
2022-11-20T18:35:36.720Z,2.03
2022-11-20T18:38:06.051Z,3.40
2022-11-20T18:40:37.471Z,4.60
2022-11-20T18:43:25.541Z,8.18
2022-11-20T18:46:04.720Z,7.88
2022-11-20T18:52:07.799Z,5.53
2022-11-20T18:54:38.573Z,4.65
2022-11-20T18:57:10.513Z,3.90
2022-11-20T18:59:39.838Z,1.92
2022-11-20T19:02:11.823Z,4.72
2022-11-20T19:04:41.598Z,6.00
2022-11-20T19:07:13.366Z,3.53
2022-11-20T19:09:44.815Z,5.10
2022-11-20T19:12:15.392Z,3.88
2022-11-20T19:14:44.841Z,4.47
2022-11-20T19:17:14.853Z,2.53
2022-11-20T19:19:44.161Z,2.95
2022-11-20T19:22:15.058Z,3.20
2022-11-20T19:24:44.424Z,1.08
2022-11-20T19:27:13.691Z,0.98
2022-11-20T19:29:43.214Z,0.93
2022-11-20T19:32:12.542Z,0.47
2022-11-20T19:34:41.808Z,0.50
2022-11-20T19:37:11.266Z,0.20
2022-11-20T19:39:42.036Z,0.47
2022-11-20T19:42:11.412Z,1.13
2022-11-20T19:44:40.806Z,0.40
2022-11-20T19:47:14.254Z,2.28
2022-11-20T19:49:44.359Z,2.75
2022-11-20T19:52:13.759Z,3.50
2022-11-20T19:54:44.552Z,0.88
2022-11-20T19:57:13.956Z,0.50
2022-11-20T19:59:43.279Z,1.05
2022-11-20T20:02:14.230Z,0.57
2022-11-20T20:04:43.779Z,2.33
2022-11-20T20:07:13.699Z,1.77
2022-11-20T20:09:44.599Z,2.40
2022-11-20T20:12:13.992Z,1.70
2022-11-20T20:14:43.459Z,1.65
2022-11-20T20:17:12.949Z,1.35
2022-11-20T20:19:42.344Z,1.17
2022-11-20T20:22:11.610Z,0.95
2022-11-20T20:24:41.030Z,4.75
2022-11-20T20:27:11.858Z,3.55
2022-11-20T20:29:41.331Z,3.20
2022-11-20T20:32:10.705Z,3.40
2022-11-20T20:34:40.361Z,3.20
2022-11-20T20:37:09.859Z,2.75
2022-11-20T20:39:39.300Z,1.77
2022-11-20T20:42:08.714Z,3.15
2022-11-20T20:44:56.988Z,2.60
2022-11-20T20:47:26.327Z,2.60
2022-11-20T20:49:55.638Z,2.35
2022-11-20T20:52:27.582Z,2.20
2022-11-20T20:54:57.457Z,2.00
2022-11-20T20:57:28.711Z,1.80
2022-11-20T20:59:59.590Z,0.30
2022-11-20T21:02:29.071Z,0.40
2022-11-20T21:04:59.802Z,0.30
2022-11-20T21:07:29.354Z,0.28
2022-11-20T21:09:59.087Z,0.30
2022-11-20T21:12:28.285Z,0.10
2022-11-20T21:14:59.053Z,0.10
2022-11-20T21:17:29.452Z,0.30
2022-11-20T21:19:58.864Z,0.20
2022-11-20T21:22:27.187Z,0.55
2022-11-20T21:24:56.609Z,0.20
2022-11-20T21:27:25.949Z,0.20
2022-11-20T21:29:55.442Z,0.20
2022-11-20T21:32:26.249Z,0.40
2022-11-20T21:34:55.661Z,0.75
2022-11-20T21:37:25.139Z,0.40
2022-11-20T21:39:54.632Z,0.20
2022-11-20T21:42:23.994Z,0.20
2022-11-20T21:44:53.336Z,0.40
2022-11-20T21:47:22.765Z,0.65
2022-11-20T21:52:07.746Z,0.80
2022-11-20T21:54:37.004Z,0.30
2022-11-20T21:57:06.449Z,0.63
2022-11-20T21:59:35.798Z,0.60
2022-11-20T22:02:05.750Z,1.00
2022-11-20T22:04:35.310Z,0.52
2022-11-20T22:07:06.732Z,0.82
2022-11-20T22:09:36.092Z,0.80
2022-11-20T22:12:06.355Z,1.10
2022-11-20T22:14:34.595Z,1.25
2022-11-20T22:17:03.975Z,1.50
2022-11-20T22:19:33.399Z,2.05
2022-11-20T22:22:02.791Z,1.80
2022-11-20T22:24:33.566Z,1.13
2022-11-20T22:27:02.925Z,1.50
2022-11-20T22:29:32.728Z,2.05
2022-11-20T22:32:02.108Z,1.67
2022-11-20T22:34:31.570Z,2.28
2022-11-20T22:37:01.019Z,2.10
2022-11-20T22:39:31.687Z,1.95
2022-11-20T22:42:00.962Z,2.15
2022-11-20T22:44:30.268Z,2.88
2022-11-20T22:46:59.639Z,1.92
2022-11-20T22:49:29.207Z,1.83
2022-11-20T22:51:58.695Z,2.20
2022-11-20T22:54:28.080Z,1.77
2022-11-20T22:56:58.870Z,1.92
2022-11-20T22:59:28.316Z,1.38
2022-11-20T23:02:00.492Z,1.83
2022-11-20T23:04:29.858Z,1.27
2022-11-20T23:06:59.450Z,2.10
2022-11-20T23:09:29.018Z,2.13
2022-11-20T23:11:59.787Z,3.20
2022-11-20T23:14:29.547Z,1.75
2022-11-20T23:16:59.112Z,2.20
2022-11-20T23:19:28.475Z,2.40
2022-11-20T23:21:58.016Z,2.13
2022-11-20T23:24:27.454Z,3.25
2022-11-20T23:26:58.449Z,2.88
2022-11-20T23:29:27.894Z,3.10
2022-11-20T23:31:57.231Z,2.60
2022-11-20T23:34:26.805Z,3.25
2022-11-20T23:36:56.576Z,2.97
2022-11-20T23:39:25.990Z,2.83
2022-11-20T23:41:55.651Z,2.58
2022-11-20T23:44:26.767Z,2.30
2022-11-20T23:46:56.313Z,3.08
2022-11-20T23:49:25.772Z,2.30
2022-11-20T23:51:56.533Z,2.92
2022-11-20T23:54:26.203Z,2.55
2022-11-20T23:56:55.891Z,2.17
2022-11-20T23:59:26.889Z,2.40
